sensor_id;sensor_type;location;lat;lon;timestamp;temperature;humidity
79187;SHT31;68762;51.980;5.646;2023-11-21T00:02:11;11.3;71.1
79187;SHT31;68762;51.980;5.646;2023-11-21T00:04:40;11.3;71.2
79187;SHT31;68762;51.980;5.646;2023-11-21T00:07:08;11.2;71.2
79187;SHT31;68762;51.980;5.646;2023-11-21T00:09:37;11.2;71.1
79187;SHT31;68762;51.980;5.646;2023-11-21T00:12:06;11.2;71.2
79187;SHT31;68762;51.980;5.646;2023-11-21T00:14:36;11.1;71.2
79187;SHT31;68762;51.980;5.646;2023-11-21T00:17:06;11.1;71.2
79187;SHT31;68762;51.980;5.646;2023-11-21T00:19:35;11.1;71.2
79187;SHT31;68762;51.980;5.646;2023-11-21T00:22:04;11.1;71.3
79187;SHT31;68762;51.980;5.646;2023-11-21T00:24:33;11.0;71.4
79187;SHT31;68762;51.980;5.646;2023-11-21T00:27:02;11.0;71.4
79187;SHT31;68762;51.980;5.646;2023-11-21T00:29:32;11.0;71.4
79187;SHT31;68762;51.980;5.646;2023-11-21T00:32:01;10.9;71.4
79187;SHT31;68762;51.980;5.646;2023-11-21T00:34:34;10.9;71.5
79187;SHT31;68762;51.980;5.646;2023-11-21T00:37:03;10.9;71.5
79187;SHT31;68762;51.980;5.646;2023-11-21T00:39:32;10.9;71.6
79187;SHT31;68762;51.980;5.646;2023-11-21T00:42:01;10.8;71.7
79187;SHT31;68762;51.980;5.646;2023-11-21T00:44:31;10.8;71.8
79187;SHT31;68762;51.980;5.646;2023-11-21T00:47:00;10.8;72.2
79187;SHT31;68762;51.980;5.646;2023-11-21T00:49:29;10.8;72.1
79187;SHT31;68762;51.980;5.646;2023-11-21T00:51:58;10.7;71.8
79187;SHT31;68762;51.980;5.646;2023-11-21T00:54:31;10.7;72.1
79187;SHT31;68762;51.980;5.646;2023-11-21T00:57:00;10.7;71.9
79187;SHT31;68762;51.980;5.646;2023-11-21T00:59:30;10.7;71.7
79187;SHT31;68762;51.980;5.646;2023-11-21T01:01:58;10.6;71.7
79187;SHT31;68762;51.980;5.646;2023-11-21T01:04:28;10.6;71.7
79187;SHT31;68762;51.980;5.646;2023-11-21T01:06:58;10.6;71.8
79187;SHT31;68762;51.980;5.646;2023-11-21T01:09:27;10.6;71.7
79187;SHT31;68762;51.980;5.646;2023-11-21T01:11:56;10.6;72.0
79187;SHT31;68762;51.980;5.646;2023-11-21T01:14:26;10.5;72.0
79187;SHT31;68762;51.980;5.646;2023-11-21T01:16:55;10.5;72.0
79187;SHT31;68762;51.980;5.646;2023-11-21T01:19:24;10.5;72.2
79187;SHT31;68762;51.980;5.646;2023-11-21T01:21:53;10.5;72.6
79187;SHT31;68762;51.980;5.646;2023-11-21T01:24:21;10.5;72.7
79187;SHT31;68762;51.980;5.646;2023-11-21T01:26:51;10.5;72.9
79187;SHT31;68762;51.980;5.646;2023-11-21T01:29:20;10.5;73.1
79187;SHT31;68762;51.980;5.646;2023-11-21T01:31:48;10.5;73.1
79187;SHT31;68762;51.980;5.646;2023-11-21T01:34:18;10.5;73.1
79187;SHT31;68762;51.980;5.646;2023-11-21T01:36:47;10.5;73.3
79187;SHT31;68762;51.980;5.646;2023-11-21T01:39:16;10.5;73.3
79187;SHT31;68762;51.980;5.646;2023-11-21T01:41:49;10.5;73.4
79187;SHT31;68762;51.980;5.646;2023-11-21T01:44:18;10.5;73.4
79187;SHT31;68762;51.980;5.646;2023-11-21T01:46:47;10.5;73.5
79187;SHT31;68762;51.980;5.646;2023-11-21T01:49:17;10.5;73.4
79187;SHT31;68762;51.980;5.646;2023-11-21T01:51:49;10.5;73.4
79187;SHT31;68762;51.980;5.646;2023-11-21T01:54:20;10.4;73.3
79187;SHT31;68762;51.980;5.646;2023-11-21T01:56:49;10.4;73.1
79187;SHT31;68762;51.980;5.646;2023-11-21T01:59:20;10.4;73.1
79187;SHT31;68762;51.980;5.646;2023-11-21T02:01:50;10.4;73.1
79187;SHT31;68762;51.980;5.646;2023-11-21T02:04:19;10.4;73.1
79187;SHT31;68762;51.980;5.646;2023-11-21T02:06:48;10.4;72.9
79187;SHT31;68762;51.980;5.646;2023-11-21T02:09:26;10.4;72.7
79187;SHT31;68762;51.980;5.646;2023-11-21T02:11:56;10.4;72.8
79187;SHT31;68762;51.980;5.646;2023-11-21T02:14:25;10.4;72.9
79187;SHT31;68762;51.980;5.646;2023-11-21T02:16:55;10.3;72.7
79187;SHT31;68762;51.980;5.646;2023-11-21T02:19:24;10.3;72.6
79187;SHT31;68762;51.980;5.646;2023-11-21T02:21:57;10.3;72.6
79187;SHT31;68762;51.980;5.646;2023-11-21T02:24:27;10.3;72.7
79187;SHT31;68762;51.980;5.646;2023-11-21T02:26:56;10.3;72.9
79187;SHT31;68762;51.980;5.646;2023-11-21T02:29:25;10.3;73.1
79187;SHT31;68762;51.980;5.646;2023-11-21T02:31:55;10.3;73.2
79187;SHT31;68762;51.980;5.646;2023-11-21T02:34:24;10.3;73.5
79187;SHT31;68762;51.980;5.646;2023-11-21T02:36:53;10.3;73.8
79187;SHT31;68762;51.980;5.646;2023-11-21T02:39:24;10.3;74.0
79187;SHT31;68762;51.980;5.646;2023-11-21T02:41:55;10.3;74.1
79187;SHT31;68762;51.980;5.646;2023-11-21T02:44:23;10.3;74.3
79187;SHT31;68762;51.980;5.646;2023-11-21T02:46:52;10.3;74.7
79187;SHT31;68762;51.980;5.646;2023-11-21T02:49:21;10.3;74.9
79187;SHT31;68762;51.980;5.646;2023-11-21T02:51:50;10.3;75.0
79187;SHT31;68762;51.980;5.646;2023-11-21T02:54:18;10.4;75.2
79187;SHT31;68762;51.980;5.646;2023-11-21T02:56:48;10.4;75.3
79187;SHT31;68762;51.980;5.646;2023-11-21T02:59:18;10.4;75.4
79187;SHT31;68762;51.980;5.646;2023-11-21T03:01:47;10.4;75.5
79187;SHT31;68762;51.980;5.646;2023-11-21T03:04:16;10.4;75.5
79187;SHT31;68762;51.980;5.646;2023-11-21T03:06:46;10.4;75.5
79187;SHT31;68762;51.980;5.646;2023-11-21T03:09:16;10.4;75.5
79187;SHT31;68762;51.980;5.646;2023-11-21T03:11:45;10.4;75.5
79187;SHT31;68762;51.980;5.646;2023-11-21T03:14:14;10.4;75.5
79187;SHT31;68762;51.980;5.646;2023-11-21T03:16:42;10.4;75.4
79187;SHT31;68762;51.980;5.646;2023-11-21T03:19:11;10.4;75.2
79187;SHT31;68762;51.980;5.646;2023-11-21T03:21:41;10.4;75.1
79187;SHT31;68762;51.980;5.646;2023-11-21T03:24:12;10.4;75.1
79187;SHT31;68762;51.980;5.646;2023-11-21T03:26:44;10.5;75.2
79187;SHT31;68762;51.980;5.646;2023-11-21T03:29:13;10.5;75.4
79187;SHT31;68762;51.980;5.646;2023-11-21T03:31:42;10.5;75.2
79187;SHT31;68762;51.980;5.646;2023-11-21T03:34:19;10.5;75.3
79187;SHT31;68762;51.980;5.646;2023-11-21T03:36:48;10.5;75.4
79187;SHT31;68762;51.980;5.646;2023-11-21T03:39:17;10.6;75.3
79187;SHT31;68762;51.980;5.646;2023-11-21T03:41:45;10.6;75.4
79187;SHT31;68762;51.980;5.646;2023-11-21T03:44:15;10.6;75.4
79187;SHT31;68762;51.980;5.646;2023-11-21T03:46:44;10.6;75.3
79187;SHT31;68762;51.980;5.646;2023-11-21T03:49:13;10.7;75.1
79187;SHT31;68762;51.980;5.646;2023-11-21T03:51:41;10.7;75.3
79187;SHT31;68762;51.980;5.646;2023-11-21T03:54:10;10.7;75.4
79187;SHT31;68762;51.980;5.646;2023-11-21T03:56:39;10.8;75.3
79187;SHT31;68762;51.980;5.646;2023-11-21T03:59:07;10.8;75.2
79187;SHT31;68762;51.980;5.646;2023-11-21T04:01:38;10.8;75.2
79187;SHT31;68762;51.980;5.646;2023-11-21T04:04:09;10.8;75.4
79187;SHT31;68762;51.980;5.646;2023-11-21T04:06:37;10.8;75.2
79187;SHT31;68762;51.980;5.646;2023-11-21T04:09:06;10.9;75.2
79187;SHT31;68762;51.980;5.646;2023-11-21T04:11:35;10.9;75.2
79187;SHT31;68762;51.980;5.646;2023-11-21T04:14:03;10.9;75.2
79187;SHT31;68762;51.980;5.646;2023-11-21T04:16:32;10.9;75.3
79187;SHT31;68762;51.980;5.646;2023-11-21T04:19:01;10.9;75.1
79187;SHT31;68762;51.980;5.646;2023-11-21T04:21:30;11.0;75.1
79187;SHT31;68762;51.980;5.646;2023-11-21T04:24:00;11.0;75.0
79187;SHT31;68762;51.980;5.646;2023-11-21T04:26:28;11.0;75.1
79187;SHT31;68762;51.980;5.646;2023-11-21T04:28:59;11.0;75.2
79187;SHT31;68762;51.980;5.646;2023-11-21T04:31:27;11.0;75.2
79187;SHT31;68762;51.980;5.646;2023-11-21T04:33:56;11.0;75.3
79187;SHT31;68762;51.980;5.646;2023-11-21T04:36:25;11.0;75.1
79187;SHT31;68762;51.980;5.646;2023-11-21T04:38:54;11.0;75.4
79187;SHT31;68762;51.980;5.646;2023-11-21T04:41:22;11.1;75.3
79187;SHT31;68762;51.980;5.646;2023-11-21T04:43:51;11.1;75.4
79187;SHT31;68762;51.980;5.646;2023-11-21T04:46:20;11.1;75.2
79187;SHT31;68762;51.980;5.646;2023-11-21T04:48:48;11.1;75.2
79187;SHT31;68762;51.980;5.646;2023-11-21T04:51:17;11.2;75.2
79187;SHT31;68762;51.980;5.646;2023-11-21T04:53:46;11.2;75.3
79187;SHT31;68762;51.980;5.646;2023-11-21T04:56:15;11.2;75.3
79187;SHT31;68762;51.980;5.646;2023-11-21T04:58:46;11.2;75.3
79187;SHT31;68762;51.980;5.646;2023-11-21T05:01:15;11.2;75.4
79187;SHT31;68762;51.980;5.646;2023-11-21T05:03:44;11.1;75.6
79187;SHT31;68762;51.980;5.646;2023-11-21T05:06:13;11.1;75.7
79187;SHT31;68762;51.980;5.646;2023-11-21T05:08:42;11.1;75.8
79187;SHT31;68762;51.980;5.646;2023-11-21T05:11:10;11.1;76.0
79187;SHT31;68762;51.980;5.646;2023-11-21T05:13:39;11.1;76.1
79187;SHT31;68762;51.980;5.646;2023-11-21T05:16:08;11.1;76.1
79187;SHT31;68762;51.980;5.646;2023-11-21T05:18:37;11.1;76.2
79187;SHT31;68762;51.980;5.646;2023-11-21T05:21:07;11.1;76.3
79187;SHT31;68762;51.980;5.646;2023-11-21T05:23:36;11.1;76.4
79187;SHT31;68762;51.980;5.646;2023-11-21T05:26:05;11.1;76.5
79187;SHT31;68762;51.980;5.646;2023-11-21T05:28:34;11.1;76.5
79187;SHT31;68762;51.980;5.646;2023-11-21T05:31:03;11.1;76.5
79187;SHT31;68762;51.980;5.646;2023-11-21T05:33:32;11.1;76.6
79187;SHT31;68762;51.980;5.646;2023-11-21T05:36:01;11.1;76.7
79187;SHT31;68762;51.980;5.646;2023-11-21T05:38:30;11.1;76.6
79187;SHT31;68762;51.980;5.646;2023-11-21T05:40:59;11.1;76.6
79187;SHT31;68762;51.980;5.646;2023-11-21T05:43:27;11.1;76.7
79187;SHT31;68762;51.980;5.646;2023-11-21T05:45:57;11.1;76.7
79187;SHT31;68762;51.980;5.646;2023-11-21T05:48:26;11.1;76.7
79187;SHT31;68762;51.980;5.646;2023-11-21T05:50:57;11.1;76.6
79187;SHT31;68762;51.980;5.646;2023-11-21T05:53:25;11.1;76.5
79187;SHT31;68762;51.980;5.646;2023-11-21T05:55:54;11.2;76.4
79187;SHT31;68762;51.980;5.646;2023-11-21T05:58:23;11.2;76.5
79187;SHT31;68762;51.980;5.646;2023-11-21T06:00:52;11.2;76.6
79187;SHT31;68762;51.980;5.646;2023-11-21T06:03:21;11.2;76.6
79187;SHT31;68762;51.980;5.646;2023-11-21T06:05:51;11.2;76.7
79187;SHT31;68762;51.980;5.646;2023-11-21T06:08:22;11.2;76.8
79187;SHT31;68762;51.980;5.646;2023-11-21T06:10:51;11.2;76.8
79187;SHT31;68762;51.980;5.646;2023-11-21T06:13:19;11.2;76.9
79187;SHT31;68762;51.980;5.646;2023-11-21T06:15:51;11.2;77.0
79187;SHT31;68762;51.980;5.646;2023-11-21T06:18:20;11.2;77.1
79187;SHT31;68762;51.980;5.646;2023-11-21T06:20:48;11.1;77.2
79187;SHT31;68762;51.980;5.646;2023-11-21T06:23:19;11.1;77.4
79187;SHT31;68762;51.980;5.646;2023-11-21T06:25:48;11.1;77.4
79187;SHT31;68762;51.980;5.646;2023-11-21T06:28:17;11.1;77.4
79187;SHT31;68762;51.980;5.646;2023-11-21T06:30:48;11.1;77.6
79187;SHT31;68762;51.980;5.646;2023-11-21T06:33:17;11.1;77.6
79187;SHT31;68762;51.980;5.646;2023-11-21T06:35:46;11.1;77.6
79187;SHT31;68762;51.980;5.646;2023-11-21T06:38:16;11.2;77.7
79187;SHT31;68762;51.980;5.646;2023-11-21T06:40:46;11.2;77.6
79187;SHT31;68762;51.980;5.646;2023-11-21T06:43:15;11.2;77.5
79187;SHT31;68762;51.980;5.646;2023-11-21T06:45:44;11.2;77.4
79187;SHT31;68762;51.980;5.646;2023-11-21T06:48:14;11.2;77.4
79187;SHT31;68762;51.980;5.646;2023-11-21T06:50:43;11.2;77.4
79187;SHT31;68762;51.980;5.646;2023-11-21T06:53:13;11.2;77.4
79187;SHT31;68762;51.980;5.646;2023-11-21T06:55:42;11.1;77.5
79187;SHT31;68762;51.980;5.646;2023-11-21T06:58:10;11.1;77.7
79187;SHT31;68762;51.980;5.646;2023-11-21T07:00:41;11.1;77.9
79187;SHT31;68762;51.980;5.646;2023-11-21T07:03:13;11.1;77.8
79187;SHT31;68762;51.980;5.646;2023-11-21T07:05:43;11.1;77.8
79187;SHT31;68762;51.980;5.646;2023-11-21T07:08:12;11.2;77.7
79187;SHT31;68762;51.980;5.646;2023-11-21T07:10:41;11.2;77.8
79187;SHT31;68762;51.980;5.646;2023-11-21T07:13:09;11.2;77.9
79187;SHT31;68762;51.980;5.646;2023-11-21T07:15:39;11.2;78.1
79187;SHT31;68762;51.980;5.646;2023-11-21T07:18:07;11.2;78.1
79187;SHT31;68762;51.980;5.646;2023-11-21T07:20:36;11.2;78.2
79187;SHT31;68762;51.980;5.646;2023-11-21T07:23:05;11.2;78.1
79187;SHT31;68762;51.980;5.646;2023-11-21T07:25:34;11.2;78.2
79187;SHT31;68762;51.980;5.646;2023-11-21T07:28:05;11.2;78.3
79187;SHT31;68762;51.980;5.646;2023-11-21T07:30:33;11.2;78.3
79187;SHT31;68762;51.980;5.646;2023-11-21T07:33:02;11.3;78.3
79187;SHT31;68762;51.980;5.646;2023-11-21T07:35:32;11.3;78.2
79187;SHT31;68762;51.980;5.646;2023-11-21T07:38:00;11.3;78.2
79187;SHT31;68762;51.980;5.646;2023-11-21T07:40:30;11.4;78.2
79187;SHT31;68762;51.980;5.646;2023-11-21T07:42:59;11.4;78.2
79187;SHT31;68762;51.980;5.646;2023-11-21T07:45:27;11.4;78.0
79187;SHT31;68762;51.980;5.646;2023-11-21T07:47:56;11.5;78.0
79187;SHT31;68762;51.980;5.646;2023-11-21T07:50:27;11.5;78.0
79187;SHT31;68762;51.980;5.646;2023-11-21T07:52:56;11.5;78.1
79187;SHT31;68762;51.980;5.646;2023-11-21T07:55:25;11.5;78.1
79187;SHT31;68762;51.980;5.646;2023-11-21T07:57:53;11.6;78.1
79187;SHT31;68762;51.980;5.646;2023-11-21T08:00:24;11.6;77.9
79187;SHT31;68762;51.980;5.646;2023-11-21T08:02:56;11.6;77.8
79187;SHT31;68762;51.980;5.646;2023-11-21T08:05:25;11.7;77.7
79187;SHT31;68762;51.980;5.646;2023-11-21T08:07:54;11.7;77.7
79187;SHT31;68762;51.980;5.646;2023-11-21T08:10:22;11.7;77.5
79187;SHT31;68762;51.980;5.646;2023-11-21T08:12:51;11.7;77.4
79187;SHT31;68762;51.980;5.646;2023-11-21T08:15:20;11.7;77.5
79187;SHT31;68762;51.980;5.646;2023-11-21T08:17:49;11.8;77.7
79187;SHT31;68762;51.980;5.646;2023-11-21T08:20:20;11.8;77.5
79187;SHT31;68762;51.980;5.646;2023-11-21T08:22:49;11.8;77.5
79187;SHT31;68762;51.980;5.646;2023-11-21T08:25:18;11.8;77.5
79187;SHT31;68762;51.980;5.646;2023-11-21T08:27:47;11.9;77.5
79187;SHT31;68762;51.980;5.646;2023-11-21T08:30:15;11.9;77.4
79187;SHT31;68762;51.980;5.646;2023-11-21T08:32:45;11.9;77.6
79187;SHT31;68762;51.980;5.646;2023-11-21T08:35:14;11.9;77.8
79187;SHT31;68762;51.980;5.646;2023-11-21T08:37:43;12.0;77.9
79187;SHT31;68762;51.980;5.646;2023-11-21T08:40:12;12.0;77.8
79187;SHT31;68762;51.980;5.646;2023-11-21T08:42:43;12.0;77.8
79187;SHT31;68762;51.980;5.646;2023-11-21T08:45:12;12.0;77.8
79187;SHT31;68762;51.980;5.646;2023-11-21T08:47:41;12.1;77.9
79187;SHT31;68762;51.980;5.646;2023-11-21T08:50:11;12.1;77.8
79187;SHT31;68762;51.980;5.646;2023-11-21T08:52:42;12.1;77.8
79187;SHT31;68762;51.980;5.646;2023-11-21T08:55:10;12.2;77.9
79187;SHT31;68762;51.980;5.646;2023-11-21T08:57:43;12.2;77.7
79187;SHT31;68762;51.980;5.646;2023-11-21T09:00:13;12.2;77.7
79187;SHT31;68762;51.980;5.646;2023-11-21T09:02:43;12.3;77.5
79187;SHT31;68762;51.980;5.646;2023-11-21T09:05:15;12.3;77.4
79187;SHT31;68762;51.980;5.646;2023-11-21T09:07:45;12.3;77.2
79187;SHT31;68762;51.980;5.646;2023-11-21T09:10:17;12.4;77.3
79187;SHT31;68762;51.980;5.646;2023-11-21T09:12:47;12.4;77.3
79187;SHT31;68762;51.980;5.646;2023-11-21T09:15:15;12.4;77.1
79187;SHT31;68762;51.980;5.646;2023-11-21T09:17:44;12.4;77.0
79187;SHT31;68762;51.980;5.646;2023-11-21T09:20:13;12.5;76.9
79187;SHT31;68762;51.980;5.646;2023-11-21T09:22:42;12.5;76.9
79187;SHT31;68762;51.980;5.646;2023-11-21T09:25:12;12.5;76.9
79187;SHT31;68762;51.980;5.646;2023-11-21T09:27:41;12.6;76.8
79187;SHT31;68762;51.980;5.646;2023-11-21T09:30:10;12.6;76.9
79187;SHT31;68762;51.980;5.646;2023-11-21T09:32:43;12.6;77.1
79187;SHT31;68762;51.980;5.646;2023-11-21T09:35:13;12.6;76.9
79187;SHT31;68762;51.980;5.646;2023-11-21T09:37:44;12.6;77.0
79187;SHT31;68762;51.980;5.646;2023-11-21T09:40:13;12.7;76.9
79187;SHT31;68762;51.980;5.646;2023-11-21T09:42:51;12.7;76.9
79187;SHT31;68762;51.980;5.646;2023-11-21T09:45:25;12.7;77.5
79187;SHT31;68762;51.980;5.646;2023-11-21T09:47:55;12.7;77.9
79187;SHT31;68762;51.980;5.646;2023-11-21T09:50:24;12.8;78.3
79187;SHT31;68762;51.980;5.646;2023-11-21T09:52:58;12.8;78.6
79187;SHT31;68762;51.980;5.646;2023-11-21T09:55:36;12.9;79.0
79187;SHT31;68762;51.980;5.646;2023-11-21T09:58:09;12.9;78.6
79187;SHT31;68762;51.980;5.646;2023-11-21T10:00:40;12.9;78.7
79187;SHT31;68762;51.980;5.646;2023-11-21T10:03:09;13.0;78.1
79187;SHT31;68762;51.980;5.646;2023-11-21T10:05:39;13.1;77.5
79187;SHT31;68762;51.980;5.646;2023-11-21T10:08:10;13.1;77.1
79187;SHT31;68762;51.980;5.646;2023-11-21T10:10:44;13.1;77.1
79187;SHT31;68762;51.980;5.646;2023-11-21T10:13:14;13.2;77.2
79187;SHT31;68762;51.980;5.646;2023-11-21T10:15:50;13.2;77.3
79187;SHT31;68762;51.980;5.646;2023-11-21T10:18:19;13.2;76.5
79187;SHT31;68762;51.980;5.646;2023-11-21T10:20:49;13.3;75.2
79187;SHT31;68762;51.980;5.646;2023-11-21T10:23:21;13.3;75.0
79187;SHT31;68762;51.980;5.646;2023-11-21T10:25:50;13.3;75.0
79187;SHT31;68762;51.980;5.646;2023-11-21T10:28:19;13.3;75.1
79187;SHT31;68762;51.980;5.646;2023-11-21T10:30:48;13.3;74.7
79187;SHT31;68762;51.980;5.646;2023-11-21T10:33:21;13.3;74.4
79187;SHT31;68762;51.980;5.646;2023-11-21T10:35:53;13.3;74.5
79187;SHT31;68762;51.980;5.646;2023-11-21T10:38:22;13.3;74.6
79187;SHT31;68762;51.980;5.646;2023-11-21T10:40:53;13.3;74.6
79187;SHT31;68762;51.980;5.646;2023-11-21T10:43:24;13.3;74.4
79187;SHT31;68762;51.980;5.646;2023-11-21T10:45:57;13.2;74.4
79187;SHT31;68762;51.980;5.646;2023-11-21T10:48:27;13.2;74.7
79187;SHT31;68762;51.980;5.646;2023-11-21T10:50:55;13.2;74.9
79187;SHT31;68762;51.980;5.646;2023-11-21T10:53:28;13.2;75.5
79187;SHT31;68762;51.980;5.646;2023-11-21T10:56:06;13.3;75.1
79187;SHT31;68762;51.980;5.646;2023-11-21T10:58:37;13.3;75.7
79187;SHT31;68762;51.980;5.646;2023-11-21T11:01:07;13.3;75.2
79187;SHT31;68762;51.980;5.646;2023-11-21T11:03:38;13.3;74.9
79187;SHT31;68762;51.980;5.646;2023-11-21T11:06:07;13.3;75.0
79187;SHT31;68762;51.980;5.646;2023-11-21T11:08:40;13.3;74.8
79187;SHT31;68762;51.980;5.646;2023-11-21T11:11:09;13.3;74.5
79187;SHT31;68762;51.980;5.646;2023-11-21T11:13:39;13.3;74.0
79187;SHT31;68762;51.980;5.646;2023-11-21T11:16:12;13.3;73.8
79187;SHT31;68762;51.980;5.646;2023-11-21T11:18:43;13.3;73.9
79187;SHT31;68762;51.980;5.646;2023-11-21T11:21:26;13.3;73.9
79187;SHT31;68762;51.980;5.646;2023-11-21T11:24:29;13.3;74.1
79187;SHT31;68762;51.980;5.646;2023-11-21T11:27:09;13.3;73.6
79187;SHT31;68762;51.980;5.646;2023-11-21T11:29:56;13.2;73.7
79187;SHT31;68762;51.980;5.646;2023-11-21T11:32:29;13.2;74.2
79187;SHT31;68762;51.980;5.646;2023-11-21T11:35:10;13.2;74.5
79187;SHT31;68762;51.980;5.646;2023-11-21T11:37:43;13.2;74.5
79187;SHT31;68762;51.980;5.646;2023-11-21T11:40:13;13.2;74.4
79187;SHT31;68762;51.980;5.646;2023-11-21T11:43:00;13.2;74.3
79187;SHT31;68762;51.980;5.646;2023-11-21T11:45:34;13.2;74.6
79187;SHT31;68762;51.980;5.646;2023-11-21T11:48:11;13.2;74.8
79187;SHT31;68762;51.980;5.646;2023-11-21T11:51:03;13.3;74.8
79187;SHT31;68762;51.980;5.646;2023-11-21T11:53:36;13.3;75.0
79187;SHT31;68762;51.980;5.646;2023-11-21T11:56:22;13.3;74.9
79187;SHT31;68762;51.980;5.646;2023-11-21T11:58:53;13.3;74.8
79187;SHT31;68762;51.980;5.646;2023-11-21T12:01:24;13.3;74.8
79187;SHT31;68762;51.980;5.646;2023-11-21T12:06:11;13.3;74.9
79187;SHT31;68762;51.980;5.646;2023-11-21T12:08:43;13.3;75.0
79187;SHT31;68762;51.980;5.646;2023-11-21T12:11:16;13.3;75.0
79187;SHT31;68762;51.980;5.646;2023-11-21T12:13:46;13.3;74.7
79187;SHT31;68762;51.980;5.646;2023-11-21T12:16:14;13.4;75.1
79187;SHT31;68762;51.980;5.646;2023-11-21T12:18:43;13.4;74.9
79187;SHT31;68762;51.980;5.646;2023-11-21T12:21:13;13.4;75.0
79187;SHT31;68762;51.980;5.646;2023-11-21T12:23:43;13.4;74.7
79187;SHT31;68762;51.980;5.646;2023-11-21T12:26:13;13.4;74.4
79187;SHT31;68762;51.980;5.646;2023-11-21T12:28:46;13.5;74.5
79187;SHT31;68762;51.980;5.646;2023-11-21T12:31:17;13.5;73.6
79187;SHT31;68762;51.980;5.646;2023-11-21T12:33:46;13.5;73.5
79187;SHT31;68762;51.980;5.646;2023-11-21T12:36:15;13.5;73.5
79187;SHT31;68762;51.980;5.646;2023-11-21T12:38:44;13.4;73.8
79187;SHT31;68762;51.980;5.646;2023-11-21T12:41:13;13.4;73.8
79187;SHT31;68762;51.980;5.646;2023-11-21T12:43:42;13.4;73.9
79187;SHT31;68762;51.980;5.646;2023-11-21T12:46:11;13.4;73.6
79187;SHT31;68762;51.980;5.646;2023-11-21T12:48:41;13.4;73.6
79187;SHT31;68762;51.980;5.646;2023-11-21T12:51:12;13.4;73.3
79187;SHT31;68762;51.980;5.646;2023-11-21T12:53:43;13.4;73.4
79187;SHT31;68762;51.980;5.646;2023-11-21T12:56:14;13.4;73.3
79187;SHT31;68762;51.980;5.646;2023-11-21T12:58:45;13.4;73.2
79187;SHT31;68762;51.980;5.646;2023-11-21T13:01:19;13.4;73.0
79187;SHT31;68762;51.980;5.646;2023-11-21T13:03:50;13.4;73.3
79187;SHT31;68762;51.980;5.646;2023-11-21T13:06:19;13.4;73.5
79187;SHT31;68762;51.980;5.646;2023-11-21T13:08:51;13.4;73.5
79187;SHT31;68762;51.980;5.646;2023-11-21T13:11:20;13.4;73.7
79187;SHT31;68762;51.980;5.646;2023-11-21T13:13:51;13.4;73.7
79187;SHT31;68762;51.980;5.646;2023-11-21T13:16:22;13.3;73.9
79187;SHT31;68762;51.980;5.646;2023-11-21T13:18:53;13.3;73.8
79187;SHT31;68762;51.980;5.646;2023-11-21T13:21:23;13.3;73.7
79187;SHT31;68762;51.980;5.646;2023-11-21T13:23:52;13.4;73.4
79187;SHT31;68762;51.980;5.646;2023-11-21T13:26:21;13.4;73.3
79187;SHT31;68762;51.980;5.646;2023-11-21T13:28:52;13.4;73.7
79187;SHT31;68762;51.980;5.646;2023-11-21T13:31:20;13.4;73.8
79187;SHT31;68762;51.980;5.646;2023-11-21T13:33:53;13.4;73.4
79187;SHT31;68762;51.980;5.646;2023-11-21T13:36:28;13.4;72.7
79187;SHT31;68762;51.980;5.646;2023-11-21T13:38:59;13.4;72.5
79187;SHT31;68762;51.980;5.646;2023-11-21T13:41:33;13.4;72.2
79187;SHT31;68762;51.980;5.646;2023-11-21T13:44:07;13.4;72.5
79187;SHT31;68762;51.980;5.646;2023-11-21T13:46:43;13.5;72.3
79187;SHT31;68762;51.980;5.646;2023-11-21T13:49:12;13.5;72.3
79187;SHT31;68762;51.980;5.646;2023-11-21T13:51:42;13.5;72.4
79187;SHT31;68762;51.980;5.646;2023-11-21T13:54:14;13.5;72.1
79187;SHT31;68762;51.980;5.646;2023-11-21T13:56:45;13.5;71.7
79187;SHT31;68762;51.980;5.646;2023-11-21T13:59:17;13.5;71.9
79187;SHT31;68762;51.980;5.646;2023-11-21T14:01:50;13.5;72.1
79187;SHT31;68762;51.980;5.646;2023-11-21T14:04:27;13.5;71.8
79187;SHT31;68762;51.980;5.646;2023-11-21T14:07:15;13.5;71.9
79187;SHT31;68762;51.980;5.646;2023-11-21T14:09:53;13.5;72.0
79187;SHT31;68762;51.980;5.646;2023-11-21T14:12:22;13.5;72.2
79187;SHT31;68762;51.980;5.646;2023-11-21T14:14:51;13.5;72.2
79187;SHT31;68762;51.980;5.646;2023-11-21T14:17:21;13.4;72.2
79187;SHT31;68762;51.980;5.646;2023-11-21T14:19:52;13.4;71.8
79187;SHT31;68762;51.980;5.646;2023-11-21T14:22:22;13.4;71.4
79187;SHT31;68762;51.980;5.646;2023-11-21T14:24:52;13.4;71.3
79187;SHT31;68762;51.980;5.646;2023-11-21T14:27:25;13.4;71.3
79187;SHT31;68762;51.980;5.646;2023-11-21T14:29:54;13.3;71.4
79187;SHT31;68762;51.980;5.646;2023-11-21T14:32:24;13.3;71.2
79187;SHT31;68762;51.980;5.646;2023-11-21T14:34:52;13.3;70.8
79187;SHT31;68762;51.980;5.646;2023-11-21T14:37:21;13.2;71.0
79187;SHT31;68762;51.980;5.646;2023-11-21T14:39:50;13.2;71.1
79187;SHT31;68762;51.980;5.646;2023-11-21T14:42:19;13.2;71.5
79187;SHT31;68762;51.980;5.646;2023-11-21T14:44:52;13.2;71.4
79187;SHT31;68762;51.980;5.646;2023-11-21T14:47:25;13.1;71.5
79187;SHT31;68762;51.980;5.646;2023-11-21T14:49:54;13.1;71.5
79187;SHT31;68762;51.980;5.646;2023-11-21T14:52:28;13.1;71.6
79187;SHT31;68762;51.980;5.646;2023-11-21T14:55:02;13.1;71.3
79187;SHT31;68762;51.980;5.646;2023-11-21T14:59:21;13.1;71.2
79187;SHT31;68762;51.980;5.646;2023-11-21T15:01:50;13.0;71.4
79187;SHT31;68762;51.980;5.646;2023-11-21T15:04:22;13.0;70.9
79187;SHT31;68762;51.980;5.646;2023-11-21T15:06:57;13.0;70.9
79187;SHT31;68762;51.980;5.646;2023-11-21T15:09:28;12.9;70.8
79187;SHT31;68762;51.980;5.646;2023-11-21T15:12:08;12.9;71.2
79187;SHT31;68762;51.980;5.646;2023-11-21T15:14:45;12.9;71.0
79187;SHT31;68762;51.980;5.646;2023-11-21T15:17:16;12.8;70.7
79187;SHT31;68762;51.980;5.646;2023-11-21T15:19:51;12.8;70.3
79187;SHT31;68762;51.980;5.646;2023-11-21T15:22:20;12.8;70.1
79187;SHT31;68762;51.980;5.646;2023-11-21T15:24:49;12.7;69.8
79187;SHT31;68762;51.980;5.646;2023-11-21T15:27:20;12.7;69.6
79187;SHT31;68762;51.980;5.646;2023-11-21T15:29:50;12.6;69.3
79187;SHT31;68762;51.980;5.646;2023-11-21T15:32:20;12.6;69.1
79187;SHT31;68762;51.980;5.646;2023-11-21T15:34:48;12.6;69.7
79187;SHT31;68762;51.980;5.646;2023-11-21T15:37:17;12.5;69.5
79187;SHT31;68762;51.980;5.646;2023-11-21T15:39:48;12.5;69.9
79187;SHT31;68762;51.980;5.646;2023-11-21T15:42:16;12.5;68.7
79187;SHT31;68762;51.980;5.646;2023-11-21T15:44:46;12.4;68.9
79187;SHT31;68762;51.980;5.646;2023-11-21T15:47:16;12.4;68.4
79187;SHT31;68762;51.980;5.646;2023-11-21T15:49:45;12.4;68.6
79187;SHT31;68762;51.980;5.646;2023-11-21T15:52:14;12.3;68.6
79187;SHT31;68762;51.980;5.646;2023-11-21T15:54:43;12.3;67.9
79187;SHT31;68762;51.980;5.646;2023-11-21T15:57:12;12.3;67.6
79187;SHT31;68762;51.980;5.646;2023-11-21T15:59:43;12.3;67.6
79187;SHT31;68762;51.980;5.646;2023-11-21T16:02:12;12.3;67.0
79187;SHT31;68762;51.980;5.646;2023-11-21T16:04:42;12.2;66.9
79187;SHT31;68762;51.980;5.646;2023-11-21T16:07:14;12.2;66.8
79187;SHT31;68762;51.980;5.646;2023-11-21T16:09:43;12.2;66.5
79187;SHT31;68762;51.980;5.646;2023-11-21T16:12:11;12.1;65.9
79187;SHT31;68762;51.980;5.646;2023-11-21T16:14:40;12.1;65.8
79187;SHT31;68762;51.980;5.646;2023-11-21T16:17:12;12.0;65.3
79187;SHT31;68762;51.980;5.646;2023-11-21T16:19:44;12.0;65.1
79187;SHT31;68762;51.980;5.646;2023-11-21T16:22:13;11.9;65.8
79187;SHT31;68762;51.980;5.646;2023-11-21T16:24:42;11.9;65.9
79187;SHT31;68762;51.980;5.646;2023-11-21T16:27:11;11.8;65.6